Time;durP1;ratioP1;P1;durP2;ratioP2;P2;SDS_P1;SDS_P2;PMS_P1;PMS_P2;Temp;Humidity;BMP_temperature;BMP_pressure;BME280_temperature;BME280_humidity;BME280_pressure;Samples;Min_cycle;Max_cycle;Signal;HPM_P1;HPM_P2
2023/08/12 00:01:21;;;;;;;;;;;22.60;58.70;;;;;;5106628;28;19924;-60
2023/08/12 00:03:47;;;;;;;;;;;22.60;58.80;;;;;;5087230;27;20284;-61
2023/08/12 00:06:14;;;;;;;;;;;22.60;58.80;;;;;;5097544;28;20520;-61
2023/08/12 00:08:41;;;;;;;;;;;22.60;58.70;;;;;;5105667;27;19928;-61
2023/08/12 00:11:07;;;;;;;;;;;22.60;58.70;;;;;;5119146;27;19977;-61
2023/08/12 00:13:34;;;;;;;;;;;22.60;58.80;;;;;;5122866;27;19924;-61
2023/08/12 00:16:01;;;;;;;;;;;22.60;58.80;;;;;;5101484;28;19928;-61
2023/08/12 00:18:29;;;;;;;;;;;22.60;58.80;;;;;;5121427;27;20439;-61
2023/08/12 00:20:57;;;;;;;;;;;22.60;58.80;;;;;;5096987;28;19924;-61
2023/08/12 00:23:24;;;;;;;;;;;22.60;59.00;;;;;;5104203;28;19930;-61
2023/08/12 00:25:50;;;;;;;;;;;22.60;58.80;;;;;;5100567;28;19931;-59
2023/08/12 00:28:17;;;;;;;;;;;22.60;58.80;;;;;;5105642;28;19931;-61
2023/08/12 00:30:44;;;;;;;;;;;22.60;58.80;;;;;;5108641;28;19924;-61
2023/08/12 00:33:11;;;;;;;;;;;22.60;58.80;;;;;;5101656;28;19924;-61
2023/08/12 00:35:39;;;;;;;;;;;22.60;58.80;;;;;;5120340;28;19972;-61
2023/08/12 00:38:06;;;;;;;;;;;22.60;58.90;;;;;;5107096;28;19923;-61
2023/08/12 00:40:33;;;;;;;;;;;22.60;58.90;;;;;;5104402;28;19931;-61
2023/08/12 00:43:00;;;;;;;;;;;22.60;58.90;;;;;;5101331;28;19931;-61
2023/08/12 00:45:26;;;;;;;;;;;22.60;58.90;;;;;;5104988;28;19923;-61
2023/08/12 00:47:54;;;;;;;;;;;22.60;58.90;;;;;;5126711;28;20372;-61
2023/08/12 00:50:20;;;;;;;;;;;22.60;58.80;;;;;;5097236;28;19931;-61
2023/08/12 00:52:49;;;;;;;;;;;22.60;58.80;;;;;;5108196;28;20015;-61
2023/08/12 00:55:15;;;;;;;;;;;22.60;58.90;;;;;;5104499;28;19927;-60
2023/08/12 00:57:42;;;;;;;;;;;22.50;58.80;;;;;;5109472;28;19930;-61
2023/08/12 01:00:09;;;;;;;;;;;22.50;58.70;;;;;;5105926;28;19990;-60
2023/08/12 01:02:36;;;;;;;;;;;22.50;58.80;;;;;;5113015;28;19923;-62
2023/08/12 01:05:03;;;;;;;;;;;22.60;58.90;;;;;;5105808;28;20027;-60
2023/08/12 01:07:30;;;;;;;;;;;22.50;58.80;;;;;;5094542;28;19935;-62
2023/08/12 01:09:58;;;;;;;;;;;22.50;58.80;;;;;;5101898;28;19993;-61
2023/08/12 01:12:25;;;;;;;;;;;22.50;58.80;;;;;;5119696;28;19924;-60
2023/08/12 01:14:53;;;;;;;;;;;22.50;58.80;;;;;;5105816;28;19925;-61
2023/08/12 01:17:20;;;;;;;;;;;22.50;58.80;;;;;;5127802;27;19927;-61
2023/08/12 01:19:47;;;;;;;;;;;22.50;58.80;;;;;;5109015;27;19934;-61
2023/08/12 01:22:14;;;;;;;;;;;22.50;58.80;;;;;;5127472;27;19927;-61
2023/08/12 01:24:43;;;;;;;;;;;22.50;58.80;;;;;;5113029;27;19938;-61
2023/08/12 01:27:10;;;;;;;;;;;22.50;58.80;;;;;;5113145;28;19931;-61
2023/08/12 01:29:38;;;;;;;;;;;22.50;58.80;;;;;;5115066;27;19929;-62
2023/08/12 01:32:07;;;;;;;;;;;22.50;58.80;;;;;;5104948;27;19924;-61
2023/08/12 01:34:35;;;;;;;;;;;22.50;58.80;;;;;;5105082;27;20015;-61
2023/08/12 01:37:01;;;;;;;;;;;22.50;58.80;;;;;;5122954;27;19927;-60
2023/08/12 01:39:28;;;;;;;;;;;22.50;58.80;;;;;;5112417;27;20037;-60
2023/08/12 01:41:57;;;;;;;;;;;22.50;58.80;;;;;;5106844;28;19930;-61
2023/08/12 01:44:23;;;;;;;;;;;22.50;58.80;;;;;;5106077;27;19969;-60
2023/08/12 01:46:50;;;;;;;;;;;22.50;58.80;;;;;;5107767;27;20360;-61
2023/08/12 01:49:17;;;;;;;;;;;22.50;58.80;;;;;;5127087;27;19930;-61
2023/08/12 01:51:44;;;;;;;;;;;22.50;58.80;;;;;;5098901;27;19942;-61
2023/08/12 01:54:10;;;;;;;;;;;22.50;58.80;;;;;;5108271;27;19931;-61
2023/08/12 01:56:37;;;;;;;;;;;22.50;58.80;;;;;;5108679;27;20009;-61
2023/08/12 01:59:05;;;;;;;;;;;22.50;58.80;;;;;;5120577;27;20429;-60
2023/08/12 02:01:32;;;;;;;;;;;22.50;58.80;;;;;;5124452;27;19987;-61
2023/08/12 02:03:59;;;;;;;;;;;22.50;58.70;;;;;;5095249;28;19927;-60
2023/08/12 02:06:26;;;;;;;;;;;22.50;58.70;;;;;;5100806;27;20563;-61
2023/08/12 02:08:52;;;;;;;;;;;22.50;58.80;;;;;;5107662;27;19923;-60
2023/08/12 02:11:19;;;;;;;;;;;22.50;58.80;;;;;;5099130;27;19957;-61
2023/08/12 02:13:46;;;;;;;;;;;22.50;58.80;;;;;;5112447;28;19924;-61
2023/08/12 02:16:14;;;;;;;;;;;22.50;58.80;;;;;;5103482;28;20327;-60
2023/08/12 02:18:41;;;;;;;;;;;22.50;58.90;;;;;;5122293;27;19973;-61
2023/08/12 02:21:08;;;;;;;;;;;22.50;59.50;;;;;;5103347;28;20419;-61
2023/08/12 02:23:34;;;;;;;;;;;22.50;58.90;;;;;;5109884;27;19928;-61
2023/08/12 02:26:02;;;;;;;;;;;22.50;59.00;;;;;;5115196;27;19973;-61
2023/08/12 02:28:29;;;;;;;;;;;22.50;59.00;;;;;;5097560;27;19919;-61
2023/08/12 02:30:56;;;;;;;;;;;22.50;59.00;;;;;;5091502;28;19972;-60
2023/08/12 02:33:24;;;;;;;;;;;22.50;59.00;;;;;;5103603;28;19924;-61
2023/08/12 02:35:53;;;;;;;;;;;22.50;59.00;;;;;;5104340;28;20289;-61
2023/08/12 02:38:20;;;;;;;;;;;22.50;59.00;;;;;;5121374;27;19931;-61
2023/08/12 02:40:48;;;;;;;;;;;22.50;59.00;;;;;;5106993;27;20397;-61
2023/08/12 02:43:15;;;;;;;;;;;22.50;59.00;;;;;;5096142;28;19928;-61
2023/08/12 02:45:41;;;;;;;;;;;22.50;59.00;;;;;;5127423;27;19963;-60
2023/08/12 02:48:08;;;;;;;;;;;22.50;59.10;;;;;;5093850;28;19931;-60
2023/08/12 02:50:37;;;;;;;;;;;22.50;59.10;;;;;;5139634;27;19969;-60
2023/08/12 02:53:04;;;;;;;;;;;22.50;59.00;;;;;;5102844;28;20335;-59
2023/08/12 02:55:32;;;;;;;;;;;22.50;59.00;;;;;;5121778;27;20497;-61
2023/08/12 02:57:58;;;;;;;;;;;22.50;59.00;;;;;;5100679;28;20295;-60
2023/08/12 03:00:25;;;;;;;;;;;22.50;59.00;;;;;;5101922;27;19927;-60
2023/08/12 03:02:52;;;;;;;;;;;22.50;59.00;;;;;;5102785;28;19931;-60
2023/08/12 03:05:19;;;;;;;;;;;22.50;59.00;;;;;;5099141;27;19981;-60
2023/08/12 03:07:47;;;;;;;;;;;22.50;59.10;;;;;;5093353;28;20439;-61
2023/08/12 03:10:14;;;;;;;;;;;22.50;59.10;;;;;;5112723;27;20396;-60
2023/08/12 03:12:41;;;;;;;;;;;22.50;59.10;;;;;;5106468;28;19943;-61
2023/08/12 03:15:08;;;;;;;;;;;22.50;59.00;;;;;;5093193;28;19928;-59
2023/08/12 03:17:34;;;;;;;;;;;22.50;59.10;;;;;;5116822;27;19928;-59
2023/08/12 03:20:04;;;;;;;;;;;22.50;59.10;;;;;;5098136;28;19931;-60
2023/08/12 03:22:31;;;;;;;;;;;22.50;59.10;;;;;;5111779;27;19927;-60
2023/08/12 03:24:59;;;;;;;;;;;22.50;59.10;;;;;;5101666;27;19919;-60
2023/08/12 03:27:26;;;;;;;;;;;22.50;59.10;;;;;;5096842;28;19924;-60
2023/08/12 03:29:53;;;;;;;;;;;22.50;59.10;;;;;;5099301;27;19931;-61
2023/08/12 03:32:19;;;;;;;;;;;22.50;59.10;;;;;;5109278;27;19976;-62
2023/08/12 03:34:46;;;;;;;;;;;22.50;59.10;;;;;;5108215;27;19930;-61
2023/08/12 03:37:13;;;;;;;;;;;22.50;59.20;;;;;;5104324;27;19976;-60
2023/08/12 03:39:39;;;;;;;;;;;22.50;59.20;;;;;;5109972;28;19934;-60
2023/08/12 03:42:08;;;;;;;;;;;22.50;59.20;;;;;;5107421;27;20135;-61
2023/08/12 03:44:34;;;;;;;;;;;22.50;59.20;;;;;;5103414;27;19927;-60
2023/08/12 03:47:01;;;;;;;;;;;22.50;59.20;;;;;;5096339;28;19938;-60
2023/08/12 03:49:28;;;;;;;;;;;22.50;59.20;;;;;;5087266;27;20388;-61
2023/08/12 03:51:55;;;;;;;;;;;22.50;59.20;;;;;;5105088;27;19924;-60
2023/08/12 03:54:21;;;;;;;;;;;22.50;59.20;;;;;;5102476;27;20000;-60
2023/08/12 03:56:48;;;;;;;;;;;22.50;59.20;;;;;;5082852;28;19928;-61
2023/08/12 03:59:17;;;;;;;;;;;22.50;59.20;;;;;;5111088;27;19955;-60
2023/08/12 04:01:43;;;;;;;;;;;22.50;59.10;;;;;;5090478;28;19928;-62
2023/08/12 04:04:10;;;;;;;;;;;22.50;59.10;;;;;;5089824;28;19927;-61
2023/08/12 04:06:37;;;;;;;;;;;22.50;59.10;;;;;;5079822;28;19977;-60
2023/08/12 04:09:04;;;;;;;;;;;22.50;59.20;;;;;;5101472;28;19970;-61
2023/08/12 04:11:30;;;;;;;;;;;22.50;59.20;;;;;;5101114;27;19963;-62
2023/08/12 04:13:57;;;;;;;;;;;22.50;59.20;;;;;;5108613;28;19923;-61
2023/08/12 04:16:25;;;;;;;;;;;22.50;59.20;;;;;;5100066;28;19923;-60
2023/08/12 04:18:52;;;;;;;;;;;22.50;59.20;;;;;;5094968;28;20284;-60
2023/08/12 04:21:19;;;;;;;;;;;22.50;59.20;;;;;;5107493;28;19980;-61
2023/08/12 04:23:46;;;;;;;;;;;22.40;59.10;;;;;;5108441;28;19972;-61
2023/08/12 04:26:13;;;;;;;;;;;22.50;59.20;;;;;;5129381;28;19972;-61
2023/08/12 04:28:39;;;;;;;;;;;22.50;59.20;;;;;;5103744;28;19923;-61
2023/08/12 04:31:07;;;;;;;;;;;22.40;59.10;;;;;;5100459;28;19923;-60
2023/08/12 04:33:35;;;;;;;;;;;22.50;59.20;;;;;;5101028;28;19931;-62
2023/08/12 04:36:02;;;;;;;;;;;22.40;59.10;;;;;;5119650;28;19928;-61
2023/08/12 04:38:28;;;;;;;;;;;22.50;59.20;;;;;;5102264;28;19945;-61
2023/08/12 04:40:55;;;;;;;;;;;22.40;59.10;;;;;;5100700;28;19924;-60
2023/08/12 04:43:22;;;;;;;;;;;22.40;59.10;;;;;;5105487;28;20547;-62
2023/08/12 04:45:49;;;;;;;;;;;22.40;59.10;;;;;;5105149;28;19923;-61
2023/08/12 04:48:15;;;;;;;;;;;22.40;59.10;;;;;;5109578;28;19931;-59
2023/08/12 04:50:44;;;;;;;;;;;22.40;59.10;;;;;;5096590;28;19934;-61
2023/08/12 04:53:10;;;;;;;;;;;22.40;59.20;;;;;;5095966;28;19943;-60
2023/08/12 04:55:38;;;;;;;;;;;22.50;59.30;;;;;;5114020;27;19932;-60
2023/08/12 04:58:05;;;;;;;;;;;22.40;59.20;;;;;;5131053;27;19924;-59
2023/08/12 05:00:32;;;;;;;;;;;22.40;59.20;;;;;;5125093;27;19931;-61
2023/08/12 05:02:59;;;;;;;;;;;22.50;59.30;;;;;;5104791;28;19923;-60
2023/08/12 05:05:26;;;;;;;;;;;22.40;59.30;;;;;;5093537;27;19924;-61
2023/08/12 05:07:54;;;;;;;;;;;22.40;59.30;;;;;;5107729;28;19935;-63
2023/08/12 05:10:21;;;;;;;;;;;22.40;59.30;;;;;;5116928;27;19927;-61
2023/08/12 05:12:50;;;;;;;;;;;22.40;59.20;;;;;;5107796;27;19989;-62
2023/08/12 05:15:16;;;;;;;;;;;22.40;59.20;;;;;;5129811;27;19924;-60
2023/08/12 05:17:43;;;;;;;;;;;22.40;59.20;;;;;;5099425;27;19923;-60
2023/08/12 05:20:10;;;;;;;;;;;22.40;59.20;;;;;;5110223;28;19981;-60
2023/08/12 05:22:37;;;;;;;;;;;22.40;59.20;;;;;;5116898;27;19931;-61
2023/08/12 05:25:06;;;;;;;;;;;22.50;59.30;;;;;;5090150;28;19931;-60
2023/08/12 05:27:32;;;;;;;;;;;22.40;59.20;;;;;;5094196;28;19993;-60
2023/08/12 05:29:59;;;;;;;;;;;22.40;59.20;;;;;;5125375;27;19986;-61
2023/08/12 05:32:26;;;;;;;;;;;22.40;59.30;;;;;;5103564;27;19923;-58
2023/08/12 05:34:53;;;;;;;;;;;22.40;59.20;;;;;;5122955;27;19928;-61
2023/08/12 05:37:19;;;;;;;;;;;22.40;59.20;;;;;;5104217;27;19923;-62
2023/08/12 05:39:46;;;;;;;;;;;22.40;59.30;;;;;;5104321;28;19934;-61
2023/08/12 05:42:14;;;;;;;;;;;22.40;59.30;;;;;;5103645;27;19972;-61
2023/08/12 05:44:41;;;;;;;;;;;22.40;59.30;;;;;;5104458;27;19928;-60
2023/08/12 05:47:08;;;;;;;;;;;22.40;59.30;;;;;;5130600;27;19924;-61
2023/08/12 05:49:35;;;;;;;;;;;22.40;59.30;;;;;;5132408;27;19924;-60
2023/08/12 05:52:01;;;;;;;;;;;22.50;59.40;;;;;;5135533;27;19927;-59
2023/08/12 05:54:28;;;;;;;;;;;22.40;59.40;;;;;;5126494;27;19923;-59
2023/08/12 05:56:55;;;;;;;;;;;22.40;59.30;;;;;;5102701;27;19968;-61
2023/08/12 05:59:23;;;;;;;;;;;22.40;59.30;;;;;;5106056;27;19924;-61
2023/08/12 06:01:50;;;;;;;;;;;22.40;59.30;;;;;;5130421;27;20426;-60
2023/08/12 06:04:17;;;;;;;;;;;22.40;59.30;;;;;;5094943;28;19946;-61
2023/08/12 06:06:43;;;;;;;;;;;22.40;59.30;;;;;;5096477;28;19928;-60
2023/08/12 06:09:10;;;;;;;;;;;22.40;59.30;;;;;;5134702;27;19923;-61
2023/08/12 06:11:37;;;;;;;;;;;22.40;59.30;;;;;;5098926;27;19931;-60
2023/08/12 06:14:04;;;;;;;;;;;22.40;59.30;;;;;;5107567;28;19928;-60
2023/08/12 06:16:32;;;;;;;;;;;22.40;59.40;;;;;;5111773;27;19924;-60
2023/08/12 06:18:59;;;;;;;;;;;22.40;59.40;;;;;;5128602;27;19945;-60
2023/08/12 06:21:25;;;;;;;;;;;22.40;59.40;;;;;;5108267;27;19980;-60
2023/08/12 06:23:52;;;;;;;;;;;22.40;59.40;;;;;;5116955;27;20203;-61
2023/08/12 06:26:19;;;;;;;;;;;22.50;59.50;;;;;;5111967;27;20374;-61
2023/08/12 06:28:46;;;;;;;;;;;22.40;59.40;;;;;;5121963;27;19924;-61
2023/08/12 06:31:12;;;;;;;;;;;22.40;59.40;;;;;;5116473;27;19930;-61
2023/08/12 06:33:41;;;;;;;;;;;22.40;59.50;;;;;;5122786;27;19976;-59
2023/08/12 06:36:07;;;;;;;;;;;22.50;59.60;;;;;;5107344;27;19966;-61
2023/08/12 06:38:34;;;;;;;;;;;22.40;59.50;;;;;;5124929;27;20381;-62
2023/08/12 06:41:01;;;;;;;;;;;22.50;59.60;;;;;;5119898;27;19924;-61
2023/08/12 06:43:27;;;;;;;;;;;22.50;59.60;;;;;;5104365;28;19959;-62
2023/08/12 06:45:54;;;;;;;;;;;22.40;59.60;;;;;;5095332;28;20377;-61
2023/08/12 06:48:21;;;;;;;;;;;22.50;59.70;;;;;;5095250;28;19924;-61
2023/08/12 06:50:55;;;;;;;;;;;22.50;59.60;;;;;;5096538;28;19924;-61
2023/08/12 06:53:22;;;;;;;;;;;22.50;59.70;;;;;;5095689;27;20014;-59
2023/08/12 06:55:48;;;;;;;;;;;22.50;59.70;;;;;;5090714;28;19924;-60
2023/08/12 06:58:15;;;;;;;;;;;22.50;59.70;;;;;;5096386;28;19924;-60
2023/08/12 07:00:42;;;;;;;;;;;22.50;59.70;;;;;;5099145;27;20014;-61
2023/08/12 07:03:08;;;;;;;;;;;22.50;59.70;;;;;;5102918;27;19972;-60
2023/08/12 07:05:35;;;;;;;;;;;22.50;59.70;;;;;;5095737;28;19931;-59
2023/08/12 07:08:04;;;;;;;;;;;22.50;59.70;;;;;;5100910;27;19927;-60
2023/08/12 07:10:30;;;;;;;;;;;22.50;59.70;;;;;;5100231;28;19986;-61
2023/08/12 07:12:57;;;;;;;;;;;22.50;59.70;;;;;;5094965;28;19946;-60
2023/08/12 07:15:24;;;;;;;;;;;22.50;59.70;;;;;;5112316;27;19928;-60
2023/08/12 07:17:51;;;;;;;;;;;22.50;59.70;;;;;;5113496;27;20269;-61
2023/08/12 07:20:17;;;;;;;;;;;22.50;59.70;;;;;;5110943;28;19932;-60
2023/08/12 07:22:44;;;;;;;;;;;22.50;59.70;;;;;;5095222;28;20428;-60
2023/08/12 07:25:12;;;;;;;;;;;22.50;59.70;;;;;;5094951;27;19928;-61
2023/08/12 07:27:39;;;;;;;;;;;22.50;59.70;;;;;;5096288;27;19919;-60
2023/08/12 07:30:07;;;;;;;;;;;22.50;59.70;;;;;;5095174;28;19932;-60
2023/08/12 07:32:34;;;;;;;;;;;22.50;59.70;;;;;;5099717;27;19962;-61
2023/08/12 07:35:01;;;;;;;;;;;22.50;59.70;;;;;;5116974;27;19930;-61
2023/08/12 07:37:27;;;;;;;;;;;22.50;59.70;;;;;;5094689;27;19976;-59
2023/08/12 07:39:54;;;;;;;;;;;22.50;59.70;;;;;;5096381;28;19924;-61
2023/08/12 07:42:22;;;;;;;;;;;22.50;59.70;;;;;;5092078;27;19924;-62
2023/08/12 07:44:49;;;;;;;;;;;22.50;59.70;;;;;;5101233;28;19928;-60
2023/08/12 07:47:16;;;;;;;;;;;22.50;59.80;;;;;;5116868;27;19923;-60
2023/08/12 07:49:43;;;;;;;;;;;22.50;59.80;;;;;;5095873;28;19924;-62
2023/08/12 07:52:10;;;;;;;;;;;22.50;59.80;;;;;;5114057;27;19924;-62
2023/08/12 07:54:37;;;;;;;;;;;22.50;59.80;;;;;;5094026;28;19976;-61
2023/08/12 07:57:04;;;;;;;;;;;22.50;59.80;;;;;;5101976;27;19927;-60
2023/08/12 07:59:32;;;;;;;;;;;22.60;59.90;;;;;;5096932;27;19923;-59
2023/08/12 08:01:58;;;;;;;;;;;22.50;59.80;;;;;;5127568;27;19928;-62
2023/08/12 08:04:25;;;;;;;;;;;22.50;59.80;;;;;;5098215;28;19932;-61
2023/08/12 08:06:52;;;;;;;;;;;22.50;60.50;;;;;;5096845;27;19934;-61
2023/08/12 08:09:19;;;;;;;;;;;22.50;59.90;;;;;;5096321;28;19935;-63
2023/08/12 08:11:46;;;;;;;;;;;22.50;59.90;;;;;;5097090;28;20018;-61
2023/08/12 08:14:13;;;;;;;;;;;22.50;59.90;;;;;;5097383;28;19924;-60
2023/08/12 08:16:42;;;;;;;;;;;22.50;59.90;;;;;;5096155;27;20364;-60
2023/08/12 08:19:09;;;;;;;;;;;22.60;60.00;;;;;;5102385;28;19934;-59
2023/08/12 08:21:36;;;;;;;;;;;22.50;60.00;;;;;;5097058;27;19935;-61
2023/08/12 08:24:03;;;;;;;;;;;22.50;60.00;;;;;;5099684;28;19927;-60
2023/08/12 08:26:29;;;;;;;;;;;22.60;60.30;;;;;;5127537;27;19984;-61
2023/08/12 08:28:56;;;;;;;;;;;22.60;60.30;;;;;;5105052;28;19930;-61
2023/08/12 08:31:23;;;;;;;;;;;22.60;60.30;;;;;;5113802;28;19927;-60
2023/08/12 08:33:51;;;;;;;;;;;22.60;60.30;;;;;;5102416;28;19924;-61
2023/08/12 08:36:18;;;;;;;;;;;22.60;61.10;;;;;;5101248;28;19928;-60
2023/08/12 08:38:45;;;;;;;;;;;22.60;60.40;;;;;;5102725;28;19923;-61
2023/08/12 08:41:12;;;;;;;;;;;22.60;60.50;;;;;;5121270;28;19928;-60
2023/08/12 08:43:38;;;;;;;;;;;22.60;60.70;;;;;;5095802;28;19931;-60
2023/08/12 08:46:05;;;;;;;;;;;22.60;60.70;;;;;;5111490;28;20452;-59
2023/08/12 08:48:32;;;;;;;;;;;22.60;60.90;;;;;;5105369;28;19927;-60
2023/08/12 08:51:00;;;;;;;;;;;22.60;60.90;;;;;;5120684;28;20359;-60
2023/08/12 08:53:27;;;;;;;;;;;22.60;61.00;;;;;;5103557;28;20004;-59
2023/08/12 08:55:54;;;;;;;;;;;22.60;61.00;;;;;;5110949;28;19923;-60
2023/08/12 08:58:21;;;;;;;;;;;22.60;61.10;;;;;;5098099;28;19947;-60
2023/08/12 09:00:48;;;;;;;;;;;22.60;61.30;;;;;;5119949;28;19973;-61
2023/08/12 09:03:14;;;;;;;;;;;22.60;61.40;;;;;;5091981;28;19931;-59
2023/08/12 09:05:41;;;;;;;;;;;22.60;61.60;;;;;;5098405;28;19931;-60
2023/08/12 09:08:10;;;;;;;;;;;22.60;62.00;;;;;;5123312;28;19927;-59
2023/08/12 09:10:37;;;;;;;;;;;22.60;61.90;;;;;;5093366;28;20541;-60
2023/08/12 09:13:04;;;;;;;;;;;22.60;61.90;;;;;;5091998;28;19930;-62
2023/08/12 09:15:31;;;;;;;;;;;22.70;62.20;;;;;;5094013;28;19976;-64
2023/08/12 09:17:58;;;;;;;;;;;22.70;62.90;;;;;;5112661;28;19975;-64
2023/08/12 09:20:24;;;;;;;;;;;22.70;64.00;;;;;;5104372;28;19934;-64
2023/08/12 09:22:56;;;;;;;;;;;22.70;65.80;;;;;;5123571;28;19994;-63
2023/08/12 09:25:24;;;;;;;;;;;22.70;67.20;;;;;;5102979;28;20343;-62
2023/08/12 09:27:51;;;;;;;;;;;22.70;68.40;;;;;;5105499;28;19927;-64
2023/08/12 09:30:18;;;;;;;;;;;22.70;68.40;;;;;;5096673;28;19928;-63
2023/08/12 09:32:45;;;;;;;;;;;22.80;68.20;;;;;;5097508;28;19973;-63
2023/08/12 09:35:16;;;;;;;;;;;22.80;68.30;;;;;;5099223;28;19924;-63
2023/08/12 09:37:42;;;;;;;;;;;22.80;68.40;;;;;;5100964;28;19935;-63
2023/08/12 09:40:10;;;;;;;;;;;22.80;68.30;;;;;;5122871;27;19927;-62
2023/08/12 09:42:43;;;;;;;;;;;22.80;68.50;;;;;;5118429;27;19931;-62
2023/08/12 09:45:10;;;;;;;;;;;22.80;68.30;;;;;;5092048;28;19931;-62
2023/08/12 09:47:39;;;;;;;;;;;22.80;68.30;;;;;;5104382;27;20412;-61
2023/08/12 09:50:06;;;;;;;;;;;22.80;68.50;;;;;;5098129;28;19996;-62
2023/08/12 09:52:33;;;;;;;;;;;22.80;68.60;;;;;;5125046;27;19927;-64
2023/08/12 09:54:59;;;;;;;;;;;22.80;69.20;;;;;;5102201;28;19932;-61
2023/08/12 09:57:26;;;;;;;;;;;22.80;68.50;;;;;;5120877;27;19927;-62
2023/08/12 09:59:55;;;;;;;;;;;22.80;68.50;;;;;;5104499;28;19924;-63
2023/08/12 10:02:21;;;;;;;;;;;22.80;68.60;;;;;;5104640;28;19924;-64
2023/08/12 10:04:50;;;;;;;;;;;22.80;68.80;;;;;;5092594;28;19931;-64
2023/08/12 10:07:17;;;;;;;;;;;22.80;69.00;;;;;;5130721;27;19935;-64
2023/08/12 10:09:44;;;;;;;;;;;22.80;69.70;;;;;;5116357;27;20284;-61
2023/08/12 10:12:10;;;;;;;;;;;22.80;69.60;;;;;;5125855;27;20273;-61
2023/08/12 10:14:37;;;;;;;;;;;22.80;69.60;;;;;;5105221;28;19935;-62
2023/08/12 10:17:05;;;;;;;;;;;22.80;69.40;;;;;;5097804;27;19928;-62
2023/08/12 10:19:32;;;;;;;;;;;22.80;69.40;;;;;;5124279;27;20317;-62
2023/08/12 10:21:59;;;;;;;;;;;22.80;69.40;;;;;;5111500;27;19928;-63
2023/08/12 10:24:26;;;;;;;;;;;22.80;69.60;;;;;;5124969;27;19930;-63
2023/08/12 10:26:54;;;;;;;;;;;22.80;69.60;;;;;;5115180;27;20118;-63
2023/08/12 10:29:20;;;;;;;;;;;22.80;70.30;;;;;;5108181;27;19931;-63
2023/08/12 10:31:47;;;;;;;;;;;22.80;71.40;;;;;;5112530;28;19927;-63
2023/08/12 10:34:22;;;;;;;;;;;22.80;70.60;;;;;;5099457;28;19924;-62
2023/08/12 10:36:49;;;;;;;;;;;22.80;70.20;;;;;;5089881;28;19932;-63
2023/08/12 10:39:16;;;;;;;;;;;22.80;70.10;;;;;;5131660;27;19985;-63
2023/08/12 10:41:50;;;;;;;;;;;22.80;69.90;;;;;;5130807;27;19924;-65
2023/08/12 10:44:17;;;;;;;;;;;22.80;70.00;;;;;;5106780;28;20189;-64
2023/08/12 10:46:46;;;;;;;;;;;22.80;70.30;;;;;;5124734;27;19924;-64
2023/08/12 10:49:13;;;;;;;;;;;22.80;70.30;;;;;;5127374;27;19928;-64
2023/08/12 10:51:42;;;;;;;;;;;22.80;70.50;;;;;;5107842;27;19931;-63
2023/08/12 10:54:15;;;;;;;;;;;22.80;70.40;;;;;;5108977;27;20296;-63
2023/08/12 10:57:01;;;;;;;;;;;22.80;70.20;;;;;;5106290;28;19983;-63
2023/08/12 10:59:42;;;;;;;;;;;22.80;70.30;;;;;;5101190;27;19932;-60
2023/08/12 11:02:12;;;;;;;;;;;22.80;70.20;;;;;;5105138;27;19972;-64
2023/08/12 11:04:41;;;;;;;;;;;22.80;70.00;;;;;;5114232;27;20975;-62
2023/08/12 11:07:17;;;;;;;;;;;22.80;69.90;;;;;;5114168;27;19928;-61
2023/08/12 11:09:43;;;;;;;;;;;22.80;69.90;;;;;;5104608;28;20308;-62
2023/08/12 11:12:11;;;;;;;;;;;22.80;69.60;;;;;;5112392;28;20018;-64
2023/08/12 11:14:48;;;;;;;;;;;22.80;69.40;;;;;;5111632;28;19928;-63
2023/08/12 11:17:15;;;;;;;;;;;22.80;70.10;;;;;;5131836;27;20408;-61
2023/08/12 11:19:42;;;;;;;;;;;22.80;70.50;;;;;;5106899;27;19927;-62
2023/08/12 11:22:09;;;;;;;;;;;22.80;70.50;;;;;;5103963;27;19927;-62
2023/08/12 11:24:37;;;;;;;;;;;22.80;70.30;;;;;;5106485;27;19927;-61
2023/08/12 11:27:04;;;;;;;;;;;22.80;70.20;;;;;;5124800;27;19927;-61
2023/08/12 11:29:30;;;;;;;;;;;22.80;70.20;;;;;;5116377;27;19923;-62
2023/08/12 11:31:57;;;;;;;;;;;22.80;70.00;;;;;;5104999;28;19927;-62
2023/08/12 11:34:24;;;;;;;;;;;22.80;70.00;;;;;;5095179;27;20331;-61
2023/08/12 11:36:51;;;;;;;;;;;22.80;69.90;;;;;;5105190;27;19927;-62
2023/08/12 11:39:18;;;;;;;;;;;22.80;70.00;;;;;;5119791;27;19953;-61
2023/08/12 11:41:46;;;;;;;;;;;22.80;70.00;;;;;;5105103;28;19924;-62
2023/08/12 11:44:13;;;;;;;;;;;22.80;70.00;;;;;;5128826;27;19923;-63
2023/08/12 11:46:40;;;;;;;;;;;22.80;70.10;;;;;;5113685;27;19923;-63
2023/08/12 11:49:07;;;;;;;;;;;22.80;70.20;;;;;;5121055;27;19924;-63
2023/08/12 11:51:34;;;;;;;;;;;22.80;70.60;;;;;;5104069;28;19935;-63
2023/08/12 11:54:01;;;;;;;;;;;22.80;70.60;;;;;;5107040;27;19927;-62
2023/08/12 11:56:28;;;;;;;;;;;22.80;70.50;;;;;;5122420;27;19919;-63
2023/08/12 11:58:56;;;;;;;;;;;22.80;70.90;;;;;;5124303;27;19924;-63
2023/08/12 12:01:23;;;;;;;;;;;22.80;71.60;;;;;;5105997;27;20515;-62
2023/08/12 12:03:51;;;;;;;;;;;22.80;72.00;;;;;;5090458;28;19932;-62
2023/08/12 12:06:18;;;;;;;;;;;22.80;72.20;;;;;;5112195;27;19931;-62
2023/08/12 12:08:45;;;;;;;;;;;22.80;71.90;;;;;;5112458;27;19966;-63
2023/08/12 12:11:12;;;;;;;;;;;22.80;72.50;;;;;;5141111;27;19928;-63
2023/08/12 12:13:38;;;;;;;;;;;22.80;72.80;;;;;;5108432;28;19938;-62
2023/08/12 12:16:10;;;;;;;;;;;22.80;73.00;;;;;;5121087;27;19931;-61
2023/08/12 12:18:37;;;;;;;;;;;22.80;72.90;;;;;;5097288;27;19928;-61
2023/08/12 12:21:04;;;;;;;;;;;22.80;73.60;;;;;;5093288;28;19990;-61
2023/08/12 12:23:31;;;;;;;;;;;22.80;74.20;;;;;;5108248;27;19923;-61
2023/08/12 12:25:58;;;;;;;;;;;22.80;74.30;;;;;;5119737;27;19928;-61
2023/08/12 12:28:25;;;;;;;;;;;22.80;74.20;;;;;;5122975;27;19924;-61
2023/08/12 12:30:51;;;;;;;;;;;22.80;74.70;;;;;;5109690;28;19927;-62
2023/08/12 12:33:20;;;;;;;;;;;22.80;74.70;;;;;;5122894;28;19942;-60
2023/08/12 12:35:46;;;;;;;;;;;22.80;74.90;;;;;;5098897;28;19923;-61
2023/08/12 12:38:13;;;;;;;;;;;22.80;74.80;;;;;;5096343;28;19923;-60
2023/08/12 12:40:40;;;;;;;;;;;22.80;74.50;;;;;;5101102;28;20031;-61
2023/08/12 12:43:06;;;;;;;;;;;22.80;74.40;;;;;;5097051;28;19924;-61
2023/08/12 12:45:33;;;;;;;;;;;22.80;74.60;;;;;;5114499;28;19926;-62
2023/08/12 12:48:00;;;;;;;;;;;22.80;74.80;;;;;;5111647;28;19924;-61
2023/08/12 12:50:28;;;;;;;;;;;22.80;75.10;;;;;;5117365;28;19989;-61
2023/08/12 12:52:55;;;;;;;;;;;22.80;74.80;;;;;;5093518;28;19942;-61
2023/08/12 12:55:22;;;;;;;;;;;22.70;74.40;;;;;;5103380;28;20019;-61
2023/08/12 12:57:49;;;;;;;;;;;22.70;74.30;;;;;;5097905;28;20010;-61
2023/08/12 13:00:16;;;;;;;;;;;22.70;74.30;;;;;;5116283;28;19931;-60
2023/08/12 13:02:42;;;;;;;;;;;22.70;74.30;;;;;;5104945;28;19935;-61
2023/08/12 13:05:09;;;;;;;;;;;22.70;74.90;;;;;;5108472;28;19934;-60
2023/08/12 13:07:37;;;;;;;;;;;22.70;75.30;;;;;;5101073;28;19924;-61
2023/08/12 13:10:05;;;;;;;;;;;22.70;75.60;;;;;;5127125;28;19923;-61
2023/08/12 13:12:31;;;;;;;;;;;22.70;75.90;;;;;;5105458;28;19924;-61
2023/08/12 13:14:58;;;;;;;;;;;22.70;76.10;;;;;;5108279;27;19928;-61
2023/08/12 13:17:25;;;;;;;;;;;22.70;75.90;;;;;;5097883;27;19963;-61
2023/08/12 13:19:52;;;;;;;;;;;22.70;75.60;;;;;;5097628;28;19989;-61
2023/08/12 13:22:18;;;;;;;;;;;22.70;75.50;;;;;;5102551;28;19923;-60
2023/08/12 13:24:46;;;;;;;;;;;22.70;75.70;;;;;;5098029;28;19950;-61
2023/08/12 13:27:14;;;;;;;;;;;22.70;76.70;;;;;;5119410;27;19977;-61
2023/08/12 13:29:41;;;;;;;;;;;22.70;76.80;;;;;;5114315;27;20022;-60
2023/08/12 13:32:08;;;;;;;;;;;22.70;76.70;;;;;;5120671;27;20422;-60
2023/08/12 13:34:34;;;;;;;;;;;22.70;77.30;;;;;;5109036;27;19927;-61
2023/08/12 13:37:01;;;;;;;;;;;22.70;76.40;;;;;;5101057;28;19935;-62
2023/08/12 13:39:28;;;;;;;;;;;22.70;76.80;;;;;;5104941;27;19927;-61
2023/08/12 13:41:56;;;;;;;;;;;22.70;77.20;;;;;;5107438;28;19924;-62
2023/08/12 13:44:23;;;;;;;;;;;22.70;77.10;;;;;;5123978;27;19923;-61
2023/08/12 13:46:50;;;;;;;;;;;22.70;76.70;;;;;;5098610;27;19923;-61
2023/08/12 13:49:17;;;;;;;;;;;22.70;77.30;;;;;;5102639;28;19931;-60
2023/08/12 13:51:44;;;;;;;;;;;22.70;77.60;;;;;;5115121;27;19930;-59
2023/08/12 13:54:11;;;;;;;;;;;22.70;77.80;;;;;;5100474;27;19923;-59
2023/08/12 13:56:37;;;;;;;;;;;22.70;78.60;;;;;;5102578;28;19932;-59
2023/08/12 13:59:06;;;;;;;;;;;22.70;78.60;;;;;;5129116;27;20034;-60
2023/08/12 14:01:32;;;;;;;;;;;22.70;78.60;;;;;;5105377;28;19928;-61
2023/08/12 14:03:59;;;;;;;;;;;22.60;78.70;;;;;;5109705;27;19927;-60
2023/08/12 14:06:26;;;;;;;;;;;22.60;79.00;;;;;;5105360;27;19931;-61
2023/08/12 14:08:53;;;;;;;;;;;22.60;78.60;;;;;;5096091;27;19972;-62
2023/08/12 14:11:20;;;;;;;;;;;22.60;78.00;;;;;;5099880;28;20138;-61
2023/08/12 14:13:47;;;;;;;;;;;22.60;77.90;;;;;;5101498;27;19938;-62
2023/08/12 14:16:15;;;;;;;;;;;22.60;78.00;;;;;;5107782;27;19927;-62